<?xml version="1.0" encoding="UTF-8" standalone="no" ?><gpx xmlns="http://www.topografix.com/GPX/1/1" xmlns:gpxx="http://www.garmin.com/xmlschemas/GpxExtensions/v3" xmlns:wptx1="http://www.garmin.com/xmlschemas/WaypointExtension/v1" xmlns:gpxtpx="http://www.garmin.com/xmlschemas/TrackPointExtension/v1" creator="GuideVTT.com" version="1.1" xmlns:xsi="http://www.w3.org/2001/XMLSchema-instance" xsi:schemaLocation="http://www.topografix.com/GPX/1/1 http://www.topografix.com/GPX/1/1/gpx.xsd http://www.garmin.com/xmlschemas/GpxExtensions/v3 http://www8.garmin.com/xmlschemas/GpxExtensionsv3.xsd http://www.garmin.com/xmlschemas/WaypointExtension/v1 http://www8.garmin.com/xmlschemas/WaypointExtensionv1.xsd http://www.garmin.com/xmlschemas/TrackPointExtension/v1 http://www.garmin.com/xmlschemas/TrackPointExtensionv1.xsd">
<metadata><link href="http://www.garmin.com"><text>Garmin International</text></link><time>2013-06-22T15:13:50Z</time></metadata>
<trk><name>13jan08.gpx</name><extensions><gpxx:TrackExtension><gpxx:DisplayColor>Cyan</gpxx:DisplayColor></gpxx:TrackExtension></extensions><trkseg>
<trkpt lat="43.17683300" lon="0.28695000"><ele>507</ele><time>2008-01-13T13:19:31Z</time></trkpt>
<trkpt lat="43.17675000" lon="0.28725000"><ele>507</ele><time>2008-01-13T13:19:40Z</time></trkpt>
<trkpt lat="43.17666700" lon="0.28775000"><ele>507</ele><time>2008-01-13T13:19:56Z</time></trkpt>
<trkpt lat="43.17656700" lon="0.28891700"><ele>511</ele><time>2008-01-13T13:20:36Z</time></trkpt>
<trkpt lat="43.17638300" lon="0.28965000"><ele>508</ele><time>2008-01-13T13:21:02Z</time></trkpt>
<trkpt lat="43.17621700" lon="0.29015000"><ele>514</ele><time>2008-01-13T13:21:22Z</time></trkpt>
<trkpt lat="43.17611700" lon="0.29040000"><ele>519</ele><time>2008-01-13T13:21:32Z</time></trkpt>
<trkpt lat="43.17598300" lon="0.29091700"><ele>520</ele><time>2008-01-13T13:21:50Z</time></trkpt>
<trkpt lat="43.17588300" lon="0.29150000"><ele>524</ele><time>2008-01-13T13:22:10Z</time></trkpt>
<trkpt lat="43.17306700" lon="0.29048300"><ele>518</ele><time>2008-01-13T13:23:12Z</time></trkpt>
<trkpt lat="43.17278300" lon="0.29020000"><ele>515</ele><time>2008-01-13T13:23:17Z</time></trkpt>
<trkpt lat="43.17255000" lon="0.29055000"><ele>517</ele><time>2008-01-13T13:23:24Z</time></trkpt>
<trkpt lat="43.17253300" lon="0.29116700"><ele>519</ele><time>2008-01-13T13:23:37Z</time></trkpt>
<trkpt lat="43.17276700" lon="0.29328300"><ele>524</ele><time>2008-01-13T13:24:29Z</time></trkpt>
<trkpt lat="43.17250000" lon="0.29595000"><ele>522</ele><time>2008-01-13T13:25:13Z</time></trkpt>
<trkpt lat="43.17235000" lon="0.29660000"><ele>520</ele><time>2008-01-13T13:25:23Z</time></trkpt>
<trkpt lat="43.17235000" lon="0.29858300"><ele>517</ele><time>2008-01-13T13:25:49Z</time></trkpt>
<trkpt lat="43.17256700" lon="0.30233300"><ele>524</ele><time>2008-01-13T13:27:00Z</time></trkpt>
<trkpt lat="43.17230000" lon="0.30655000"><ele>524</ele><time>2008-01-13T13:28:04Z</time></trkpt>
<trkpt lat="43.17138300" lon="0.31035000"><ele>524</ele><time>2008-01-13T13:29:02Z</time></trkpt>
<trkpt lat="43.17065000" lon="0.31156700"><ele>530</ele><time>2008-01-13T13:29:34Z</time></trkpt>
<trkpt lat="43.16805000" lon="0.31261700"><ele>536</ele><time>2008-01-13T13:30:40Z</time></trkpt>
<trkpt lat="43.16355000" lon="0.31606700"><ele>550</ele><time>2008-01-13T13:32:56Z</time></trkpt>
<trkpt lat="43.15933300" lon="0.31696700"><ele>551</ele><time>2008-01-13T13:34:22Z</time></trkpt>
<trkpt lat="43.15616700" lon="0.31885000"><ele>552</ele><time>2008-01-13T13:35:30Z</time></trkpt>
<trkpt lat="43.15241700" lon="0.31968300"><ele>556</ele><time>2008-01-13T13:36:47Z</time></trkpt>
<trkpt lat="43.14818300" lon="0.32075000"><ele>558</ele><time>2008-01-13T13:38:11Z</time></trkpt>
<trkpt lat="43.14696700" lon="0.32136700"><ele>558</ele><time>2008-01-13T13:38:36Z</time></trkpt>
<trkpt lat="43.14306700" lon="0.32635000"><ele>571</ele><time>2008-01-13T13:40:54Z</time></trkpt>
<trkpt lat="43.14208300" lon="0.32798300"><ele>572</ele><time>2008-01-13T13:41:29Z</time></trkpt>
<trkpt lat="43.14205000" lon="0.32848300"><ele>574</ele><time>2008-01-13T13:41:39Z</time></trkpt>
<trkpt lat="43.14140000" lon="0.33368300"><ele>561</ele><time>2008-01-13T13:42:55Z</time></trkpt>
<trkpt lat="43.14121700" lon="0.33411700"><ele>556</ele><time>2008-01-13T13:43:03Z</time></trkpt>
<trkpt lat="43.14078300" lon="0.33425000"><ele>558</ele><time>2008-01-13T13:43:13Z</time></trkpt>
<trkpt lat="43.13921700" lon="0.33493300"><ele>580</ele><time>2008-01-13T13:46:23Z</time></trkpt>
<trkpt lat="43.13891700" lon="0.33501700"><ele>556</ele><time>2008-01-13T13:46:36Z</time></trkpt>
<trkpt lat="43.13875000" lon="0.33503300"><ele>563</ele><time>2008-01-13T13:46:47Z</time></trkpt>
<trkpt lat="43.13816700" lon="0.33506700"><ele>560</ele><time>2008-01-13T13:47:08Z</time></trkpt>
<trkpt lat="43.13776700" lon="0.33508300"><ele>561</ele><time>2008-01-13T13:47:21Z</time></trkpt>
<trkpt lat="43.13756700" lon="0.33495000"><ele>561</ele><time>2008-01-13T13:47:29Z</time></trkpt>
<trkpt lat="43.13723300" lon="0.33466700"><ele>561</ele><time>2008-01-13T13:47:39Z</time></trkpt>
<trkpt lat="43.13708300" lon="0.33443300"><ele>561</ele><time>2008-01-13T13:47:48Z</time></trkpt>
<trkpt lat="43.13670000" lon="0.33430000"><ele>546</ele><time>2008-01-13T13:48:05Z</time></trkpt>
<trkpt lat="43.13625000" lon="0.33411700"><ele>546</ele><time>2008-01-13T13:48:22Z</time></trkpt>
<trkpt lat="43.13596700" lon="0.33395000"><ele>546</ele><time>2008-01-13T13:48:35Z</time></trkpt>
<trkpt lat="43.13565000" lon="0.33370000"><ele>550</ele><time>2008-01-13T13:48:53Z</time></trkpt>
<trkpt lat="43.13545000" lon="0.33356700"><ele>551</ele><time>2008-01-13T13:49:05Z</time></trkpt>
<trkpt lat="43.13500000" lon="0.33338300"><ele>552</ele><time>2008-01-13T13:49:24Z</time></trkpt>
<trkpt lat="43.13460000" lon="0.33288300"><ele>552</ele><time>2008-01-13T13:49:41Z</time></trkpt>
<trkpt lat="43.13443300" lon="0.33255000"><ele>541</ele><time>2008-01-13T13:49:50Z</time></trkpt>
<trkpt lat="43.13451700" lon="0.33218300"><ele>541</ele><time>2008-01-13T13:50:00Z</time></trkpt>
<trkpt lat="43.13461700" lon="0.33173300"><ele>545</ele><time>2008-01-13T13:50:13Z</time></trkpt>
<trkpt lat="43.13466700" lon="0.33100000"><ele>554</ele><time>2008-01-13T13:50:41Z</time></trkpt>
<trkpt lat="43.13463300" lon="0.33058300"><ele>556</ele><time>2008-01-13T13:50:57Z</time></trkpt>
<trkpt lat="43.13483300" lon="0.33031700"><ele>560</ele><time>2008-01-13T13:51:13Z</time></trkpt>
<trkpt lat="43.13515000" lon="0.33013300"><ele>565</ele><time>2008-01-13T13:51:33Z</time></trkpt>
<trkpt lat="43.13676700" lon="0.32985000"><ele>576</ele><time>2008-01-13T13:52:59Z</time></trkpt>
<trkpt lat="43.13698300" lon="0.32975000"><ele>578</ele><time>2008-01-13T13:53:11Z</time></trkpt>
<trkpt lat="43.13695000" lon="0.32855000"><ele>576</ele><time>2008-01-13T13:53:39Z</time></trkpt>
<trkpt lat="43.13673300" lon="0.32825000"><ele>576</ele><time>2008-01-13T13:53:48Z</time></trkpt>
<trkpt lat="43.13558300" lon="0.32813300"><ele>575</ele><time>2008-01-13T13:54:11Z</time></trkpt>
<trkpt lat="43.13175000" lon="0.32900000"><ele>577</ele><time>2008-01-13T13:55:25Z</time></trkpt>
<trkpt lat="43.13078300" lon="0.32950000"><ele>580</ele><time>2008-01-13T13:55:46Z</time></trkpt>
<trkpt lat="43.13056700" lon="0.32971700"><ele>581</ele><time>2008-01-13T13:55:53Z</time></trkpt>
<trkpt lat="43.13060000" lon="0.33018300"><ele>580</ele><time>2008-01-13T13:56:00Z</time></trkpt>
<trkpt lat="43.13040000" lon="0.33058300"><ele>580</ele><time>2008-01-13T13:56:07Z</time></trkpt>
<trkpt lat="43.12948300" lon="0.33130000"><ele>581</ele><time>2008-01-13T13:56:35Z</time></trkpt>
<trkpt lat="43.12878300" lon="0.33216700"><ele>580</ele><time>2008-01-13T13:57:03Z</time></trkpt>
<trkpt lat="43.12800000" lon="0.33265000"><ele>578</ele><time>2008-01-13T13:57:29Z</time></trkpt>
<trkpt lat="43.12768300" lon="0.33266700"><ele>578</ele><time>2008-01-13T13:57:39Z</time></trkpt>
<trkpt lat="43.12733300" lon="0.33253300"><ele>577</ele><time>2008-01-13T13:57:50Z</time></trkpt>
<trkpt lat="43.12641700" lon="0.33245000"><ele>578</ele><time>2008-01-13T13:58:20Z</time></trkpt>
<trkpt lat="43.12623300" lon="0.33240000"><ele>581</ele><time>2008-01-13T13:58:31Z</time></trkpt>
<trkpt lat="43.12611700" lon="0.33185000"><ele>590</ele><time>2008-01-13T13:58:58Z</time></trkpt>
<trkpt lat="43.12578300" lon="0.33030000"><ele>597</ele><time>2008-01-13T13:59:54Z</time></trkpt>
<trkpt lat="43.12481700" lon="0.33105000"><ele>600</ele><time>2008-01-13T14:00:34Z</time></trkpt>
<trkpt lat="43.12495000" lon="0.33196700"><ele>595</ele><time>2008-01-13T14:00:51Z</time></trkpt>
<trkpt lat="43.12296700" lon="0.33301700"><ele>584</ele><time>2008-01-13T14:01:43Z</time></trkpt>
<trkpt lat="43.12256700" lon="0.33313300"><ele>585</ele><time>2008-01-13T14:01:53Z</time></trkpt>
<trkpt lat="43.12226700" lon="0.33336700"><ele>585</ele><time>2008-01-13T14:02:02Z</time></trkpt>
<trkpt lat="43.12173300" lon="0.33265000"><ele>591</ele><time>2008-01-13T14:02:51Z</time></trkpt>
<trkpt lat="43.12053300" lon="0.33380000"><ele>590</ele><time>2008-01-13T14:03:40Z</time></trkpt>
<trkpt lat="43.11926700" lon="0.33513300"><ele>588</ele><time>2008-01-13T14:04:18Z</time></trkpt>
<trkpt lat="43.11945000" lon="0.33548300"><ele>594</ele><time>2008-01-13T14:04:37Z</time></trkpt>
<trkpt lat="43.11970000" lon="0.33548300"><ele>594</ele><time>2008-01-13T14:04:46Z</time></trkpt>
<trkpt lat="43.11985000" lon="0.33575000"><ele>597</ele><time>2008-01-13T14:04:59Z</time></trkpt>
<trkpt lat="43.11978300" lon="0.33665000"><ele>593</ele><time>2008-01-13T14:05:13Z</time></trkpt>
<trkpt lat="43.11988300" lon="0.33723300"><ele>595</ele><time>2008-01-13T14:05:29Z</time></trkpt>
<trkpt lat="43.12030000" lon="0.33711700"><ele>587</ele><time>2008-01-13T14:05:41Z</time></trkpt>
<trkpt lat="43.12066700" lon="0.33708300"><ele>586</ele><time>2008-01-13T14:05:50Z</time></trkpt>
<trkpt lat="43.12141700" lon="0.33723300"><ele>567</ele><time>2008-01-13T14:06:16Z</time></trkpt>
<trkpt lat="43.12163300" lon="0.33720000"><ele>566</ele><time>2008-01-13T14:06:26Z</time></trkpt>
<trkpt lat="43.12145000" lon="0.33753300"><ele>573</ele><time>2008-01-13T14:06:52Z</time></trkpt>
<trkpt lat="43.12108300" lon="0.33791700"><ele>580</ele><time>2008-01-13T14:07:23Z</time></trkpt>
<trkpt lat="43.12088300" lon="0.33806700"><ele>582</ele><time>2008-01-13T14:07:36Z</time></trkpt>
<trkpt lat="43.12080000" lon="0.33831700"><ele>567</ele><time>2008-01-13T14:07:54Z</time></trkpt>
<trkpt lat="43.12100000" lon="0.33856700"><ele>558</ele><time>2008-01-13T14:08:18Z</time></trkpt>
<trkpt lat="43.12116700" lon="0.33851700"><ele>544</ele><time>2008-01-13T14:08:44Z</time></trkpt>
<trkpt lat="43.12140000" lon="0.33831700"><ele>540</ele><time>2008-01-13T14:08:55Z</time></trkpt>
<trkpt lat="43.12168300" lon="0.33825000"><ele>531</ele><time>2008-01-13T14:09:05Z</time></trkpt>
<trkpt lat="43.12193300" lon="0.33826700"><ele>532</ele><time>2008-01-13T14:09:17Z</time></trkpt>
<trkpt lat="43.12225000" lon="0.33818300"><ele>534</ele><time>2008-01-13T14:09:27Z</time></trkpt>
<trkpt lat="43.12248300" lon="0.33816700"><ele>538</ele><time>2008-01-13T14:09:40Z</time></trkpt>
<trkpt lat="43.12285000" lon="0.33786700"><ele>543</ele><time>2008-01-13T14:10:03Z</time></trkpt>
<trkpt lat="43.12318300" lon="0.33768300"><ele>550</ele><time>2008-01-13T14:10:21Z</time></trkpt>
<trkpt lat="43.12340000" lon="0.33746700"><ele>551</ele><time>2008-01-13T14:10:33Z</time></trkpt>
<trkpt lat="43.12356700" lon="0.33723300"><ele>550</ele><time>2008-01-13T14:10:44Z</time></trkpt>
<trkpt lat="43.12390000" lon="0.33698300"><ele>548</ele><time>2008-01-13T14:10:57Z</time></trkpt>
<trkpt lat="43.12416700" lon="0.33691700"><ele>552</ele><time>2008-01-13T14:11:11Z</time></trkpt>
<trkpt lat="43.12440000" lon="0.33685000"><ele>552</ele><time>2008-01-13T14:11:19Z</time></trkpt>
<trkpt lat="43.12455000" lon="0.33665000"><ele>550</ele><time>2008-01-13T14:11:28Z</time></trkpt>
<trkpt lat="43.12495000" lon="0.33668300"><ele>547</ele><time>2008-01-13T14:11:42Z</time></trkpt>
<trkpt lat="43.12543300" lon="0.33678300"><ele>546</ele><time>2008-01-13T14:11:52Z</time></trkpt>
<trkpt lat="43.12661700" lon="0.33691700"><ele>513</ele><time>2008-01-13T14:12:19Z</time></trkpt>
<trkpt lat="43.12726700" lon="0.33713300"><ele>519</ele><time>2008-01-13T14:12:34Z</time></trkpt>
<trkpt lat="43.12806700" lon="0.33705000"><ele>510</ele><time>2008-01-13T14:12:48Z</time></trkpt>
<trkpt lat="43.12905000" lon="0.33660000"><ele>505</ele><time>2008-01-13T14:13:12Z</time></trkpt>
<trkpt lat="43.13006700" lon="0.33648300"><ele>506</ele><time>2008-01-13T14:13:45Z</time></trkpt>
<trkpt lat="43.13023300" lon="0.33636700"><ele>506</ele><time>2008-01-13T14:13:53Z</time></trkpt>
<trkpt lat="43.13066700" lon="0.33675000"><ele>507</ele><time>2008-01-13T14:14:15Z</time></trkpt>
<trkpt lat="43.13073300" lon="0.33705000"><ele>515</ele><time>2008-01-13T14:14:36Z</time></trkpt>
<trkpt lat="43.13088300" lon="0.33720000"><ele>523</ele><time>2008-01-13T14:15:14Z</time></trkpt>
<trkpt lat="43.13090000" lon="0.33738300"><ele>532</ele><time>2008-01-13T14:15:48Z</time></trkpt>
<trkpt lat="43.13108300" lon="0.33760000"><ele>536</ele><time>2008-01-13T14:16:36Z</time></trkpt>
<trkpt lat="43.13123300" lon="0.33785000"><ele>541</ele><time>2008-01-13T14:17:08Z</time></trkpt>
<trkpt lat="43.13153300" lon="0.33826700"><ele>554</ele><time>2008-01-13T14:18:11Z</time></trkpt>
<trkpt lat="43.13170000" lon="0.33845000"><ele>561</ele><time>2008-01-13T14:18:39Z</time></trkpt>
<trkpt lat="43.13176700" lon="0.33871700"><ele>571</ele><time>2008-01-13T14:19:17Z</time></trkpt>
<trkpt lat="43.13175000" lon="0.33893300"><ele>587</ele><time>2008-01-13T14:19:43Z</time></trkpt>
<trkpt lat="43.13166700" lon="0.33920000"><ele>588</ele><time>2008-01-13T14:20:26Z</time></trkpt>
<trkpt lat="43.13160000" lon="0.33936700"><ele>591</ele><time>2008-01-13T14:20:47Z</time></trkpt>
<trkpt lat="43.13146700" lon="0.33960000"><ele>595</ele><time>2008-01-13T14:21:19Z</time></trkpt>
<trkpt lat="43.13131700" lon="0.33978300"><ele>596</ele><time>2008-01-13T14:21:35Z</time></trkpt>
<trkpt lat="43.13096700" lon="0.34001700"><ele>600</ele><time>2008-01-13T14:21:59Z</time></trkpt>
<trkpt lat="43.13045000" lon="0.34045000"><ele>601</ele><time>2008-01-13T14:22:38Z</time></trkpt>
<trkpt lat="43.13031700" lon="0.34086700"><ele>595</ele><time>2008-01-13T14:23:00Z</time></trkpt>
<trkpt lat="43.13021700" lon="0.34101700"><ele>601</ele><time>2008-01-13T14:23:17Z</time></trkpt>
<trkpt lat="43.13050000" lon="0.34091700"><ele>596</ele><time>2008-01-13T14:23:36Z</time></trkpt>
<trkpt lat="43.13100000" lon="0.34053300"><ele>594</ele><time>2008-01-13T14:23:50Z</time></trkpt>
<trkpt lat="43.13143300" lon="0.34030000"><ele>594</ele><time>2008-01-13T14:24:01Z</time></trkpt>
<trkpt lat="43.13168300" lon="0.34021700"><ele>594</ele><time>2008-01-13T14:24:07Z</time></trkpt>
<trkpt lat="43.13185000" lon="0.33991700"><ele>592</ele><time>2008-01-13T14:24:15Z</time></trkpt>
<trkpt lat="43.13208300" lon="0.33976700"><ele>590</ele><time>2008-01-13T14:24:22Z</time></trkpt>
<trkpt lat="43.13235000" lon="0.33951700"><ele>589</ele><time>2008-01-13T14:24:31Z</time></trkpt>
<trkpt lat="43.13316700" lon="0.33970000"><ele>581</ele><time>2008-01-13T14:24:48Z</time></trkpt>
<trkpt lat="43.13335000" lon="0.33986700"><ele>538</ele><time>2008-01-13T14:24:56Z</time></trkpt>
<trkpt lat="43.13368300" lon="0.33990000"><ele>540</ele><time>2008-01-13T14:25:04Z</time></trkpt>
<trkpt lat="43.13505000" lon="0.33995000"><ele>526</ele><time>2008-01-13T14:25:39Z</time></trkpt>
<trkpt lat="43.13531700" lon="0.34006700"><ele>525</ele><time>2008-01-13T14:25:47Z</time></trkpt>
<trkpt lat="43.13566700" lon="0.33995000"><ele>525</ele><time>2008-01-13T14:26:01Z</time></trkpt>
<trkpt lat="43.13585000" lon="0.33986700"><ele>524</ele><time>2008-01-13T14:26:33Z</time></trkpt>
<trkpt lat="43.13605000" lon="0.33976700"><ele>525</ele><time>2008-01-13T14:26:48Z</time></trkpt>
<trkpt lat="43.13598300" lon="0.33933300"><ele>523</ele><time>2008-01-13T14:27:01Z</time></trkpt>
<trkpt lat="43.13630000" lon="0.33950000"><ele>521</ele><time>2008-01-13T14:27:17Z</time></trkpt>
<trkpt lat="43.13648300" lon="0.33948300"><ele>525</ele><time>2008-01-13T14:27:37Z</time></trkpt>
<trkpt lat="43.13666700" lon="0.33936700"><ele>527</ele><time>2008-01-13T14:27:48Z</time></trkpt>
<trkpt lat="43.13683300" lon="0.33940000"><ele>528</ele><time>2008-01-13T14:27:59Z</time></trkpt>
<trkpt lat="43.13701700" lon="0.33946700"><ele>526</ele><time>2008-01-13T14:28:22Z</time></trkpt>
<trkpt lat="43.13723300" lon="0.33958300"><ele>534</ele><time>2008-01-13T14:29:09Z</time></trkpt>
<trkpt lat="43.13755000" lon="0.33968300"><ele>543</ele><time>2008-01-13T14:29:41Z</time></trkpt>
<trkpt lat="43.13783300" lon="0.33978300"><ele>548</ele><time>2008-01-13T14:30:01Z</time></trkpt>
<trkpt lat="43.13808300" lon="0.33981700"><ele>548</ele><time>2008-01-13T14:30:09Z</time></trkpt>
<trkpt lat="43.13776700" lon="0.33941700"><ele>543</ele><time>2008-01-13T14:30:20Z</time></trkpt>
<trkpt lat="43.13805000" lon="0.33976700"><ele>534</ele><time>2008-01-13T14:30:30Z</time></trkpt>
<trkpt lat="43.13816700" lon="0.33993300"><ele>531</ele><time>2008-01-13T14:30:38Z</time></trkpt>
<trkpt lat="43.13850000" lon="0.34006700"><ele>530</ele><time>2008-01-13T14:30:58Z</time></trkpt>
<trkpt lat="43.13891700" lon="0.34023300"><ele>535</ele><time>2008-01-13T14:31:17Z</time></trkpt>
<trkpt lat="43.13926700" lon="0.34051700"><ele>539</ele><time>2008-01-13T14:31:37Z</time></trkpt>
<trkpt lat="43.13971700" lon="0.34116700"><ele>538</ele><time>2008-01-13T14:32:03Z</time></trkpt>
<trkpt lat="43.13983300" lon="0.34161700"><ele>532</ele><time>2008-01-13T14:32:26Z</time></trkpt>
<trkpt lat="43.13985000" lon="0.34178300"><ele>528</ele><time>2008-01-13T14:32:41Z</time></trkpt>
<trkpt lat="43.13986700" lon="0.34200000"><ele>528</ele><time>2008-01-13T14:33:12Z</time></trkpt>
<trkpt lat="43.13983300" lon="0.34218300"><ele>529</ele><time>2008-01-13T14:33:27Z</time></trkpt>
<trkpt lat="43.13983300" lon="0.34238300"><ele>528</ele><time>2008-01-13T14:34:02Z</time></trkpt>
<trkpt lat="43.13985000" lon="0.34256700"><ele>529</ele><time>2008-01-13T14:34:30Z</time></trkpt>
<trkpt lat="43.13975000" lon="0.34271700"><ele>534</ele><time>2008-01-13T14:34:48Z</time></trkpt>
<trkpt lat="43.13978300" lon="0.34283300"><ele>530</ele><time>2008-01-13T14:40:46Z</time></trkpt>
<trkpt lat="43.13966700" lon="0.34285000"><ele>516</ele><time>2008-01-13T14:48:28Z</time></trkpt>
<trkpt lat="43.13953300" lon="0.34265000"><ele>523</ele><time>2008-01-13T14:49:46Z</time></trkpt>
<trkpt lat="43.13943300" lon="0.34246700"><ele>531</ele><time>2008-01-13T14:50:04Z</time></trkpt>
<trkpt lat="43.13928300" lon="0.34240000"><ele>539</ele><time>2008-01-13T14:50:31Z</time></trkpt>
<trkpt lat="43.13921700" lon="0.34261700"><ele>542</ele><time>2008-01-13T14:50:54Z</time></trkpt>
<trkpt lat="43.13896700" lon="0.34315000"><ele>553</ele><time>2008-01-13T14:52:06Z</time></trkpt>
<trkpt lat="43.13885000" lon="0.34333300"><ele>561</ele><time>2008-01-13T14:52:31Z</time></trkpt>
<trkpt lat="43.13865000" lon="0.34346700"><ele>566</ele><time>2008-01-13T14:53:16Z</time></trkpt>
<trkpt lat="43.13836700" lon="0.34346700"><ele>561</ele><time>2008-01-13T14:53:45Z</time></trkpt>
<trkpt lat="43.13818300" lon="0.34348300"><ele>563</ele><time>2008-01-13T14:53:58Z</time></trkpt>
<trkpt lat="43.13713300" lon="0.34355000"><ele>566</ele><time>2008-01-13T14:55:16Z</time></trkpt>
<trkpt lat="43.13673300" lon="0.34356700"><ele>564</ele><time>2008-01-13T14:55:40Z</time></trkpt>
<trkpt lat="43.13650000" lon="0.34351700"><ele>565</ele><time>2008-01-13T14:55:55Z</time></trkpt>
<trkpt lat="43.13585000" lon="0.34345000"><ele>571</ele><time>2008-01-13T14:56:45Z</time></trkpt>
<trkpt lat="43.13560000" lon="0.34350000"><ele>578</ele><time>2008-01-13T14:57:06Z</time></trkpt>
<trkpt lat="43.13488300" lon="0.34356700"><ele>575</ele><time>2008-01-13T14:57:42Z</time></trkpt>
<trkpt lat="43.13446700" lon="0.34341700"><ele>580</ele><time>2008-01-13T14:58:07Z</time></trkpt>
<trkpt lat="43.13420000" lon="0.34325000"><ele>580</ele><time>2008-01-13T14:58:22Z</time></trkpt>
<trkpt lat="43.13373300" lon="0.34310000"><ele>580</ele><time>2008-01-13T14:58:42Z</time></trkpt>
<trkpt lat="43.13276700" lon="0.34320000"><ele>582</ele><time>2008-01-13T14:59:17Z</time></trkpt>
<trkpt lat="43.12821700" lon="0.34448300"><ele>586</ele><time>2008-01-13T15:01:34Z</time></trkpt>
<trkpt lat="43.12726700" lon="0.34513300"><ele>592</ele><time>2008-01-13T15:02:00Z</time></trkpt>
<trkpt lat="43.12676700" lon="0.34528300"><ele>593</ele><time>2008-01-13T15:02:13Z</time></trkpt>
<trkpt lat="43.12706700" lon="0.34646700"><ele>590</ele><time>2008-01-13T15:02:32Z</time></trkpt>
<trkpt lat="43.12781700" lon="0.34735000"><ele>579</ele><time>2008-01-13T15:02:43Z</time></trkpt>
<trkpt lat="43.12803300" lon="0.34801700"><ele>579</ele><time>2008-01-13T15:02:48Z</time></trkpt>
<trkpt lat="43.12770000" lon="0.34875000"><ele>582</ele><time>2008-01-13T15:02:59Z</time></trkpt>
<trkpt lat="43.12760000" lon="0.34913300"><ele>583</ele><time>2008-01-13T15:03:08Z</time></trkpt>
<trkpt lat="43.12730000" lon="0.35041700"><ele>590</ele><time>2008-01-13T15:03:40Z</time></trkpt>
<trkpt lat="43.12721700" lon="0.35345000"><ele>597</ele><time>2008-01-13T15:04:36Z</time></trkpt>
<trkpt lat="43.12721700" lon="0.35375000"><ele>595</ele><time>2008-01-13T15:04:43Z</time></trkpt>
<trkpt lat="43.12775000" lon="0.35380000"><ele>595</ele><time>2008-01-13T15:04:56Z</time></trkpt>
<trkpt lat="43.13006700" lon="0.35375000"><ele>592</ele><time>2008-01-13T15:05:39Z</time></trkpt>
<trkpt lat="43.13210000" lon="0.35395000"><ele>585</ele><time>2008-01-13T15:06:18Z</time></trkpt>
<trkpt lat="43.13508300" lon="0.35323300"><ele>582</ele><time>2008-01-13T15:07:07Z</time></trkpt>
<trkpt lat="43.13653300" lon="0.35311700"><ele>582</ele><time>2008-01-13T15:07:35Z</time></trkpt>
<trkpt lat="43.13720000" lon="0.35325000"><ele>581</ele><time>2008-01-13T15:07:49Z</time></trkpt>
<trkpt lat="43.13891700" lon="0.35423300"><ele>581</ele><time>2008-01-13T15:08:44Z</time></trkpt>
<trkpt lat="43.13913300" lon="0.35408300"><ele>581</ele><time>2008-01-13T15:08:53Z</time></trkpt>
<trkpt lat="43.13931700" lon="0.35351700"><ele>581</ele><time>2008-01-13T15:09:07Z</time></trkpt>
<trkpt lat="43.13983300" lon="0.35126700"><ele>576</ele><time>2008-01-13T15:09:45Z</time></trkpt>
<trkpt lat="43.14363300" lon="0.35213300"><ele>566</ele><time>2008-01-13T15:11:11Z</time></trkpt>
<trkpt lat="43.14675000" lon="0.35288300"><ele>562</ele><time>2008-01-13T15:12:11Z</time></trkpt>
<trkpt lat="43.14973300" lon="0.35348300"><ele>561</ele><time>2008-01-13T15:13:00Z</time></trkpt>
<trkpt lat="43.15370000" lon="0.35366700"><ele>557</ele><time>2008-01-13T15:14:08Z</time></trkpt>
<trkpt lat="43.15463300" lon="0.35346700"><ele>554</ele><time>2008-01-13T15:14:22Z</time></trkpt>
<trkpt lat="43.15483300" lon="0.35346700"><ele>554</ele><time>2008-01-13T15:14:34Z</time></trkpt>
<trkpt lat="43.15463300" lon="0.35318300"><ele>554</ele><time>2008-01-13T15:14:47Z</time></trkpt>
<trkpt lat="43.15453300" lon="0.35073300"><ele>551</ele><time>2008-01-13T15:15:18Z</time></trkpt>
<trkpt lat="43.15430000" lon="0.34988300"><ele>550</ele><time>2008-01-13T15:15:29Z</time></trkpt>
<trkpt lat="43.15361700" lon="0.34941700"><ele>553</ele><time>2008-01-13T15:15:46Z</time></trkpt>
<trkpt lat="43.15288300" lon="0.34910000"><ele>546</ele><time>2008-01-13T15:16:00Z</time></trkpt>
<trkpt lat="43.15148300" lon="0.35015000"><ele>541</ele><time>2008-01-13T15:16:35Z</time></trkpt>
<trkpt lat="43.15161700" lon="0.35003300"><ele>544</ele><time>2008-01-13T15:16:59Z</time></trkpt>
<trkpt lat="43.15275000" lon="0.34910000"><ele>547</ele><time>2008-01-13T15:17:43Z</time></trkpt>
<trkpt lat="43.15371700" lon="0.34945000"><ele>553</ele><time>2008-01-13T15:18:21Z</time></trkpt>
<trkpt lat="43.15415000" lon="0.34970000"><ele>552</ele><time>2008-01-13T15:18:35Z</time></trkpt>
<trkpt lat="43.15420000" lon="0.34886700"><ele>550</ele><time>2008-01-13T15:18:51Z</time></trkpt>
<trkpt lat="43.15440000" lon="0.34671700"><ele>547</ele><time>2008-01-13T15:19:21Z</time></trkpt>
<trkpt lat="43.15498300" lon="0.34380000"><ele>542</ele><time>2008-01-13T15:20:02Z</time></trkpt>
<trkpt lat="43.15531700" lon="0.34250000"><ele>535</ele><time>2008-01-13T15:20:19Z</time></trkpt>
<trkpt lat="43.15553300" lon="0.34185000"><ele>528</ele><time>2008-01-13T15:20:26Z</time></trkpt>
<trkpt lat="43.15576700" lon="0.34116700"><ele>523</ele><time>2008-01-13T15:20:34Z</time></trkpt>
<trkpt lat="43.15626700" lon="0.34105000"><ele>524</ele><time>2008-01-13T15:20:41Z</time></trkpt>
<trkpt lat="43.15660000" lon="0.34110000"><ele>523</ele><time>2008-01-13T15:20:54Z</time></trkpt>
<trkpt lat="43.15686700" lon="0.34171700"><ele>518</ele><time>2008-01-13T15:21:09Z</time></trkpt>
<trkpt lat="43.15673300" lon="0.34211700"><ele>514</ele><time>2008-01-13T15:21:27Z</time></trkpt>
<trkpt lat="43.15685000" lon="0.34195000"><ele>523</ele><time>2008-01-13T15:22:10Z</time></trkpt>
<trkpt lat="43.15678300" lon="0.34161700"><ele>523</ele><time>2008-01-13T15:22:40Z</time></trkpt>
<trkpt lat="43.15666700" lon="0.34136700"><ele>528</ele><time>2008-01-13T15:23:05Z</time></trkpt>
<trkpt lat="43.15650000" lon="0.34105000"><ele>532</ele><time>2008-01-13T15:23:31Z</time></trkpt>
<trkpt lat="43.15635000" lon="0.34076700"><ele>536</ele><time>2008-01-13T15:23:46Z</time></trkpt>
<trkpt lat="43.15565000" lon="0.34028300"><ele>534</ele><time>2008-01-13T15:24:03Z</time></trkpt>
<trkpt lat="43.15526700" lon="0.34011700"><ele>534</ele><time>2008-01-13T15:24:13Z</time></trkpt>
<trkpt lat="43.15506700" lon="0.34023300"><ele>534</ele><time>2008-01-13T15:24:16Z</time></trkpt>
<trkpt lat="43.15480000" lon="0.34051700"><ele>531</ele><time>2008-01-13T15:24:23Z</time></trkpt>
<trkpt lat="43.15445000" lon="0.34081700"><ele>501</ele><time>2008-01-13T15:24:34Z</time></trkpt>
<trkpt lat="43.15395000" lon="0.34093300"><ele>496</ele><time>2008-01-13T15:24:50Z</time></trkpt>
<trkpt lat="43.15380000" lon="0.34120000"><ele>498</ele><time>2008-01-13T15:24:58Z</time></trkpt>
<trkpt lat="43.15360000" lon="0.34153300"><ele>498</ele><time>2008-01-13T15:25:09Z</time></trkpt>
<trkpt lat="43.15335000" lon="0.34181700"><ele>495</ele><time>2008-01-13T15:25:24Z</time></trkpt>
<trkpt lat="43.15316700" lon="0.34205000"><ele>495</ele><time>2008-01-13T15:25:38Z</time></trkpt>
<trkpt lat="43.15310000" lon="0.34238300"><ele>492</ele><time>2008-01-13T15:25:49Z</time></trkpt>
<trkpt lat="43.15293300" lon="0.34261700"><ele>478</ele><time>2008-01-13T15:26:00Z</time></trkpt>
<trkpt lat="43.15278300" lon="0.34283300"><ele>498</ele><time>2008-01-13T15:26:22Z</time></trkpt>
<trkpt lat="43.15263300" lon="0.34303300"><ele>505</ele><time>2008-01-13T15:26:46Z</time></trkpt>
<trkpt lat="43.15260000" lon="0.34330000"><ele>509</ele><time>2008-01-13T15:27:07Z</time></trkpt>
<trkpt lat="43.15240000" lon="0.34371700"><ele>513</ele><time>2008-01-13T15:28:08Z</time></trkpt>
<trkpt lat="43.15233300" lon="0.34393300"><ele>511</ele><time>2008-01-13T15:28:42Z</time></trkpt>
<trkpt lat="43.15228300" lon="0.34416700"><ele>515</ele><time>2008-01-13T15:29:10Z</time></trkpt>
<trkpt lat="43.15240000" lon="0.34455000"><ele>531</ele><time>2008-01-13T15:29:46Z</time></trkpt>
<trkpt lat="43.15256700" lon="0.34485000"><ele>532</ele><time>2008-01-13T15:30:11Z</time></trkpt>
<trkpt lat="43.15275000" lon="0.34490000"><ele>546</ele><time>2008-01-13T15:31:04Z</time></trkpt>
<trkpt lat="43.15253300" lon="0.34493300"><ele>553</ele><time>2008-01-13T15:32:13Z</time></trkpt>
<trkpt lat="43.15231700" lon="0.34478300"><ele>551</ele><time>2008-01-13T15:32:30Z</time></trkpt>
<trkpt lat="43.15265000" lon="0.34293300"><ele>558</ele><time>2008-01-13T15:34:56Z</time></trkpt>
<trkpt lat="43.15281700" lon="0.34255000"><ele>535</ele><time>2008-01-13T15:35:24Z</time></trkpt>
<trkpt lat="43.15306700" lon="0.34218300"><ele>528</ele><time>2008-01-13T15:35:48Z</time></trkpt>
<trkpt lat="43.15325000" lon="0.34170000"><ele>527</ele><time>2008-01-13T15:36:16Z</time></trkpt>
<trkpt lat="43.15338300" lon="0.34138300"><ele>523</ele><time>2008-01-13T15:36:37Z</time></trkpt>
<trkpt lat="43.15353300" lon="0.34108300"><ele>522</ele><time>2008-01-13T15:36:53Z</time></trkpt>
<trkpt lat="43.15376700" lon="0.34043300"><ele>517</ele><time>2008-01-13T15:37:19Z</time></trkpt>
<trkpt lat="43.15358300" lon="0.34045000"><ele>518</ele><time>2008-01-13T15:37:34Z</time></trkpt>
<trkpt lat="43.15338300" lon="0.34030000"><ele>515</ele><time>2008-01-13T15:37:48Z</time></trkpt>
<trkpt lat="43.15316700" lon="0.34006700"><ele>506</ele><time>2008-01-13T15:38:00Z</time></trkpt>
<trkpt lat="43.15306700" lon="0.33983300"><ele>472</ele><time>2008-01-13T15:38:09Z</time></trkpt>
<trkpt lat="43.15288300" lon="0.33971700"><ele>469</ele><time>2008-01-13T15:38:21Z</time></trkpt>
<trkpt lat="43.15278300" lon="0.33945000"><ele>474</ele><time>2008-01-13T15:39:06Z</time></trkpt>
<trkpt lat="43.15275000" lon="0.33926700"><ele>482</ele><time>2008-01-13T15:39:24Z</time></trkpt>
<trkpt lat="43.15258300" lon="0.33906700"><ele>478</ele><time>2008-01-13T15:39:41Z</time></trkpt>
<trkpt lat="43.15236700" lon="0.33875000"><ele>476</ele><time>2008-01-13T15:39:59Z</time></trkpt>
<trkpt lat="43.15231700" lon="0.33856700"><ele>486</ele><time>2008-01-13T15:40:10Z</time></trkpt>
<trkpt lat="43.15221700" lon="0.33833300"><ele>490</ele><time>2008-01-13T15:40:22Z</time></trkpt>
<trkpt lat="43.15245000" lon="0.33793300"><ele>515</ele><time>2008-01-13T15:40:56Z</time></trkpt>
<trkpt lat="43.15260000" lon="0.33768300"><ele>523</ele><time>2008-01-13T15:41:13Z</time></trkpt>
<trkpt lat="43.15291700" lon="0.33726700"><ele>561</ele><time>2008-01-13T15:41:46Z</time></trkpt>
<trkpt lat="43.15310000" lon="0.33698300"><ele>553</ele><time>2008-01-13T15:42:04Z</time></trkpt>
<trkpt lat="43.15328300" lon="0.33668300"><ele>540</ele><time>2008-01-13T15:42:20Z</time></trkpt>
<trkpt lat="43.15345000" lon="0.33648300"><ele>531</ele><time>2008-01-13T15:42:36Z</time></trkpt>
<trkpt lat="43.15371700" lon="0.33606700"><ele>523</ele><time>2008-01-13T15:43:11Z</time></trkpt>
<trkpt lat="43.15385000" lon="0.33581700"><ele>526</ele><time>2008-01-13T15:43:34Z</time></trkpt>
<trkpt lat="43.15381700" lon="0.33561700"><ele>522</ele><time>2008-01-13T15:43:54Z</time></trkpt>
<trkpt lat="43.15383300" lon="0.33535000"><ele>524</ele><time>2008-01-13T15:44:11Z</time></trkpt>
<trkpt lat="43.15406700" lon="0.33513300"><ele>527</ele><time>2008-01-13T15:44:36Z</time></trkpt>
<trkpt lat="43.15428300" lon="0.33500000"><ele>539</ele><time>2008-01-13T15:44:58Z</time></trkpt>
<trkpt lat="43.15458300" lon="0.33466700"><ele>545</ele><time>2008-01-13T15:45:28Z</time></trkpt>
<trkpt lat="43.15496700" lon="0.33438300"><ele>551</ele><time>2008-01-13T15:46:00Z</time></trkpt>
<trkpt lat="43.15515000" lon="0.33426700"><ele>551</ele><time>2008-01-13T15:46:12Z</time></trkpt>
<trkpt lat="43.15530000" lon="0.33413300"><ele>551</ele><time>2008-01-13T15:46:22Z</time></trkpt>
<trkpt lat="43.15540000" lon="0.33383300"><ele>555</ele><time>2008-01-13T15:46:38Z</time></trkpt>
<trkpt lat="43.15575000" lon="0.33221700"><ele>610</ele><time>2008-01-13T15:48:27Z</time></trkpt>
<trkpt lat="43.15578300" lon="0.33198300"><ele>611</ele><time>2008-01-13T15:48:40Z</time></trkpt>
<trkpt lat="43.15560000" lon="0.33176700"><ele>600</ele><time>2008-01-13T15:48:50Z</time></trkpt>
<trkpt lat="43.15556700" lon="0.33155000"><ele>598</ele><time>2008-01-13T15:49:00Z</time></trkpt>
<trkpt lat="43.15548300" lon="0.33126700"><ele>591</ele><time>2008-01-13T15:49:12Z</time></trkpt>
<trkpt lat="43.15548300" lon="0.33086700"><ele>588</ele><time>2008-01-13T15:49:26Z</time></trkpt>
<trkpt lat="43.15546700" lon="0.33048300"><ele>583</ele><time>2008-01-13T15:49:40Z</time></trkpt>
<trkpt lat="43.15541700" lon="0.33013300"><ele>580</ele><time>2008-01-13T15:49:52Z</time></trkpt>
<trkpt lat="43.15538300" lon="0.32983300"><ele>580</ele><time>2008-01-13T15:50:07Z</time></trkpt>
<trkpt lat="43.15530000" lon="0.32960000"><ele>579</ele><time>2008-01-13T15:50:19Z</time></trkpt>
<trkpt lat="43.15523300" lon="0.32936700"><ele>574</ele><time>2008-01-13T15:50:29Z</time></trkpt>
<trkpt lat="43.15525000" lon="0.32915000"><ele>577</ele><time>2008-01-13T15:50:42Z</time></trkpt>
<trkpt lat="43.15541700" lon="0.32906700"><ele>582</ele><time>2008-01-13T15:50:58Z</time></trkpt>
<trkpt lat="43.15556700" lon="0.32908300"><ele>583</ele><time>2008-01-13T15:51:10Z</time></trkpt>
<trkpt lat="43.15578300" lon="0.32910000"><ele>582</ele><time>2008-01-13T15:51:29Z</time></trkpt>
<trkpt lat="43.15608300" lon="0.32893300"><ele>581</ele><time>2008-01-13T15:51:56Z</time></trkpt>
<trkpt lat="43.15633300" lon="0.32886700"><ele>585</ele><time>2008-01-13T15:52:16Z</time></trkpt>
<trkpt lat="43.15656700" lon="0.32836700"><ele>585</ele><time>2008-01-13T15:52:40Z</time></trkpt>
<trkpt lat="43.15656700" lon="0.32815000"><ele>590</ele><time>2008-01-13T15:52:52Z</time></trkpt>
<trkpt lat="43.15628300" lon="0.32796700"><ele>585</ele><time>2008-01-13T15:53:01Z</time></trkpt>
<trkpt lat="43.15586700" lon="0.32775000"><ele>581</ele><time>2008-01-13T15:53:11Z</time></trkpt>
<trkpt lat="43.15523300" lon="0.32771700"><ele>576</ele><time>2008-01-13T15:53:24Z</time></trkpt>
<trkpt lat="43.15490000" lon="0.32631700"><ele>567</ele><time>2008-01-13T15:53:41Z</time></trkpt>
<trkpt lat="43.15501700" lon="0.32556700"><ele>565</ele><time>2008-01-13T15:53:46Z</time></trkpt>
<trkpt lat="43.15700000" lon="0.32438300"><ele>545</ele><time>2008-01-13T15:54:05Z</time></trkpt>
<trkpt lat="43.15726700" lon="0.32406700"><ele>543</ele><time>2008-01-13T15:54:13Z</time></trkpt>
<trkpt lat="43.15775000" lon="0.32308300"><ele>546</ele><time>2008-01-13T15:54:45Z</time></trkpt>
<trkpt lat="43.15813300" lon="0.32186700"><ele>545</ele><time>2008-01-13T15:55:15Z</time></trkpt>
<trkpt lat="43.15870000" lon="0.32091700"><ele>539</ele><time>2008-01-13T15:55:40Z</time></trkpt>
<trkpt lat="43.15938300" lon="0.31991700"><ele>541</ele><time>2008-01-13T15:56:13Z</time></trkpt>
<trkpt lat="43.16070000" lon="0.31826700"><ele>552</ele><time>2008-01-13T15:57:28Z</time></trkpt>
<trkpt lat="43.16093300" lon="0.31790000"><ele>555</ele><time>2008-01-13T15:57:42Z</time></trkpt>
<trkpt lat="43.16153300" lon="0.31695000"><ele>569</ele><time>2008-01-13T15:58:22Z</time></trkpt>
<trkpt lat="43.16166700" lon="0.31666700"><ele>570</ele><time>2008-01-13T15:58:30Z</time></trkpt>
<trkpt lat="43.16355000" lon="0.31610000"><ele>562</ele><time>2008-01-13T15:59:13Z</time></trkpt>
<trkpt lat="43.16838300" lon="0.31246700"><ele>541</ele><time>2008-01-13T16:00:18Z</time></trkpt>
<trkpt lat="43.17053300" lon="0.31168300"><ele>537</ele><time>2008-01-13T16:00:47Z</time></trkpt>
<trkpt lat="43.17133300" lon="0.31043300"><ele>532</ele><time>2008-01-13T16:01:02Z</time></trkpt>
<trkpt lat="43.17231700" lon="0.30630000"><ele>531</ele><time>2008-01-13T16:01:48Z</time></trkpt>
<trkpt lat="43.17255000" lon="0.30195000"><ele>528</ele><time>2008-01-13T16:02:41Z</time></trkpt>
<trkpt lat="43.17228300" lon="0.29701700"><ele>522</ele><time>2008-01-13T16:03:24Z</time></trkpt>
<trkpt lat="43.17275000" lon="0.29341700"><ele>526</ele><time>2008-01-13T16:04:12Z</time></trkpt>
<trkpt lat="43.17273300" lon="0.29241700"><ele>524</ele><time>2008-01-13T16:04:25Z</time></trkpt>
<trkpt lat="43.17248300" lon="0.29076700"><ele>516</ele><time>2008-01-13T16:05:49Z</time></trkpt>
<trkpt lat="43.17260000" lon="0.29036700"><ele>517</ele><time>2008-01-13T16:05:58Z</time></trkpt>
<trkpt lat="43.17281700" lon="0.29035000"><ele>518</ele><time>2008-01-13T16:06:04Z</time></trkpt>
<trkpt lat="43.17305000" lon="0.29056700"><ele>519</ele><time>2008-01-13T16:06:18Z</time></trkpt>
<trkpt lat="43.17550000" lon="0.29160000"><ele>524</ele><time>2008-01-13T16:07:53Z</time></trkpt>
<trkpt lat="43.17575000" lon="0.29166700"><ele>523</ele><time>2008-01-13T16:08:05Z</time></trkpt>
<trkpt lat="43.17618300" lon="0.29016700"><ele>519</ele><time>2008-01-13T16:08:26Z</time></trkpt>
<trkpt lat="43.17641700" lon="0.28936700"><ele>516</ele><time>2008-01-13T16:08:34Z</time></trkpt>
<trkpt lat="43.17671700" lon="0.28716700"><ele>512</ele><time>2008-01-13T16:08:53Z</time></trkpt>
<trkpt lat="43.17693300" lon="0.28670000"><ele>513</ele><time>2008-01-13T16:09:06Z</time></trkpt>
</trkseg></trk></gpx>